createdAt,value
2018-04-13T00:00:39.760Z,14.70
2018-04-13T00:03:07.988Z,14.60
2018-04-13T00:05:35.482Z,14.50
2018-04-13T00:08:02.949Z,14.50
2018-04-13T00:10:31.151Z,14.50
2018-04-13T00:12:58.655Z,14.50
2018-04-13T00:15:26.119Z,14.60
2018-04-13T00:17:53.572Z,14.40
2018-04-13T00:20:21.839Z,14.50
2018-04-13T00:22:49.303Z,14.50
2018-04-13T00:25:16.760Z,14.50
2018-04-13T00:27:44.227Z,14.50
2018-04-13T00:30:11.685Z,14.50
2018-04-13T00:32:39.181Z,14.40
2018-04-13T00:35:06.662Z,14.40
2018-04-13T00:37:34.122Z,14.40
2018-04-13T00:40:02.369Z,14.40
2018-04-13T00:42:29.887Z,14.30
2018-04-13T00:44:57.332Z,14.30
2018-04-13T00:47:24.812Z,14.40
2018-04-13T00:49:53.044Z,14.20
2018-04-13T00:52:20.586Z,14.10
2018-04-13T00:54:48.036Z,14.20
2018-04-13T00:57:15.993Z,14.10
2018-04-13T00:59:43.462Z,14.10
2018-04-13T01:02:10.917Z,14.20
2018-04-13T01:04:38.428Z,14.30
2018-04-13T01:07:06.702Z,14.30
2018-04-13T01:09:34.179Z,14.30
2018-04-13T01:12:02.396Z,14.30
2018-04-13T01:14:30.667Z,14.30
2018-04-13T01:16:58.110Z,14.30
2018-04-13T01:19:25.566Z,14.30
2018-04-13T01:21:53.026Z,14.40
2018-04-13T01:24:20.502Z,14.40
2018-04-13T01:26:47.958Z,14.30
2018-04-13T01:31:48.240Z,14.20
2018-04-13T01:34:16.466Z,14.10
2018-04-13T01:36:43.913Z,14.10
2018-04-13T01:39:11.398Z,14.10
2018-04-13T01:41:38.865Z,14.00
2018-04-13T01:44:06.331Z,14.10
2018-04-13T01:46:34.555Z,14.10
2018-04-13T01:49:02.023Z,14.10
2018-04-13T01:51:29.481Z,14.00
2018-04-13T01:53:56.956Z,14.10
2018-04-13T01:56:24.411Z,14.10
2018-04-13T01:58:51.909Z,14.10
2018-04-13T02:01:19.348Z,14.10
2018-04-13T02:03:47.598Z,14.10
2018-04-13T02:06:15.075Z,14.00
2018-04-13T02:08:42.514Z,14.00
2018-04-13T02:11:10.020Z,14.20
2018-04-13T02:13:37.497Z,14.00
2018-04-13T02:16:04.976Z,13.90
2018-04-13T02:18:32.442Z,13.80
2018-04-13T02:20:59.965Z,13.80
2018-04-13T02:23:27.434Z,13.90
2018-04-13T02:25:55.723Z,13.80
2018-04-13T02:28:23.180Z,14.00
2018-04-13T02:30:50.659Z,13.90
2018-04-13T02:33:18.892Z,14.00
2018-04-13T02:35:46.368Z,14.00
2018-04-13T02:38:13.821Z,14.10
2018-04-13T02:40:41.297Z,14.00
2018-04-13T02:43:08.742Z,13.90
2018-04-13T02:45:36.994Z,13.90
2018-04-13T02:48:04.448Z,13.90
2018-04-13T02:50:31.936Z,14.00
2018-04-13T02:52:59.399Z,14.00
2018-04-13T02:55:26.912Z,14.00
2018-04-13T02:57:54.389Z,14.20
2018-04-13T03:00:21.818Z,14.20
2018-04-13T03:02:49.295Z,14.20
2018-04-13T03:05:16.746Z,14.30
2018-04-13T03:07:44.218Z,14.30
2018-04-13T03:10:11.680Z,14.40
2018-04-13T03:12:39.171Z,14.20
2018-04-13T03:15:07.398Z,14.30
2018-04-13T03:17:34.867Z,14.30
2018-04-13T03:20:02.306Z,14.20
2018-04-13T03:22:29.778Z,14.30
2018-04-13T03:24:57.219Z,14.30
2018-04-13T03:27:24.703Z,14.40
2018-04-13T03:29:52.255Z,14.40
2018-04-13T03:32:19.733Z,14.50
2018-04-13T03:34:47.947Z,14.50
2018-04-13T03:37:15.453Z,14.40
2018-04-13T03:39:42.929Z,14.40
2018-04-13T03:42:10.389Z,14.30
2018-04-13T03:44:37.872Z,14.20
2018-04-13T03:47:05.362Z,14.20
2018-04-13T03:49:32.785Z,14.10
2018-04-13T03:52:00.275Z,14.10
2018-04-13T03:54:28.078Z,14.20
2018-04-13T03:56:55.493Z,14.30
2018-04-13T03:59:22.983Z,14.40
2018-04-13T04:01:50.474Z,14.50
2018-04-13T04:04:17.962Z,14.50
2018-04-13T04:06:45.412Z,14.40
2018-04-13T04:09:12.891Z,14.50
2018-04-13T04:11:40.330Z,14.30
2018-04-13T04:14:07.834Z,14.40
2018-04-13T04:16:36.052Z,14.40
2018-04-13T04:19:03.542Z,14.40
2018-04-13T04:21:43.673Z,14.30
2018-04-13T04:24:23.008Z,14.30
2018-04-13T04:26:50.464Z,14.40
2018-04-13T04:29:17.959Z,14.30
2018-04-13T04:31:45.422Z,14.30
2018-04-13T04:34:13.665Z,14.40
2018-04-13T04:36:41.143Z,14.40
2018-04-13T04:39:08.590Z,14.40
2018-04-13T04:41:36.830Z,14.50
2018-04-13T04:44:04.283Z,14.50
2018-04-13T04:46:31.762Z,14.50
2018-04-13T04:48:59.217Z,14.50
2018-04-13T04:51:26.707Z,14.50
2018-04-13T04:53:54.956Z,14.60
2018-04-13T04:56:22.428Z,14.60
2018-04-13T04:58:49.895Z,14.60
2018-04-13T05:01:18.160Z,14.60
2018-04-13T05:03:46.392Z,14.70
2018-04-13T05:06:13.828Z,14.70
2018-04-13T05:08:41.298Z,14.70
2018-04-13T05:11:08.848Z,14.60
2018-04-13T05:13:36.323Z,14.70
2018-04-13T05:16:05.689Z,14.80
2018-04-13T05:18:33.176Z,14.80
2018-04-13T05:21:00.623Z,14.90
2018-04-13T05:23:28.087Z,14.90
2018-04-13T05:25:55.587Z,15.00
2018-04-13T05:28:23.908Z,15.00
2018-04-13T05:30:51.586Z,15.00
2018-04-13T05:33:19.089Z,14.90
2018-04-13T05:35:46.550Z,15.00
2018-04-13T05:38:14.787Z,15.00
2018-04-13T05:40:42.242Z,15.10
2018-04-13T05:43:09.773Z,15.10
2018-04-13T05:45:37.245Z,15.10
2018-04-13T05:48:04.723Z,15.10
2018-04-13T05:50:32.222Z,15.00
2018-04-13T05:52:59.680Z,15.00
2018-04-13T05:55:27.155Z,15.00
2018-04-13T05:57:54.627Z,14.90
2018-04-13T06:00:22.119Z,14.90
2018-04-13T06:02:50.360Z,14.80
2018-04-13T06:05:17.840Z,14.80
2018-04-13T06:07:45.311Z,14.70
2018-04-13T06:10:13.640Z,14.30
2018-04-13T06:12:41.110Z,14.30
2018-04-13T06:15:08.606Z,14.10
2018-04-13T06:17:36.857Z,13.90
2018-04-13T06:20:04.339Z,13.90
2018-04-13T06:22:32.557Z,13.90
2018-04-13T06:25:00.035Z,13.90
2018-04-13T06:27:27.511Z,13.80
2018-04-13T06:29:54.962Z,13.80
2018-04-13T06:32:22.455Z,13.70
2018-04-13T06:34:50.666Z,13.60
2018-04-13T06:37:18.173Z,13.60
2018-04-13T06:39:45.595Z,13.60
2018-04-13T06:42:13.091Z,13.60
2018-04-13T06:44:40.570Z,13.60
2018-04-13T06:47:08.050Z,13.50
2018-04-13T06:49:35.553Z,13.20
2018-04-13T06:52:03.788Z,13.20
2018-04-13T06:54:31.234Z,13.20
2018-04-13T06:56:58.717Z,13.10
2018-04-13T06:59:26.193Z,13.10
2018-04-13T07:01:54.454Z,13.00
2018-04-13T07:04:21.925Z,13.00
2018-04-13T07:06:50.249Z,12.80
2018-04-13T07:09:17.722Z,12.80
2018-04-13T07:11:45.953Z,12.70
2018-04-13T07:14:13.458Z,12.70
2018-04-13T07:16:40.964Z,12.80
2018-04-13T07:19:08.431Z,12.70
2018-04-13T07:21:35.897Z,12.60
2018-04-13T07:24:03.437Z,12.60
2018-04-13T07:26:31.657Z,12.50
2018-04-13T07:28:59.125Z,12.50
2018-04-13T07:31:26.958Z,12.50
2018-04-13T07:33:54.067Z,12.50
2018-04-13T07:36:21.543Z,12.50
2018-04-13T07:38:49.006Z,12.40
2018-04-13T07:41:16.482Z,12.50
2018-04-13T07:43:43.959Z,12.50
2018-04-13T07:46:11.438Z,12.40
2018-04-13T07:48:38.917Z,12.40
2018-04-13T07:51:06.393Z,12.40
2018-04-13T07:53:33.888Z,12.40
2018-04-13T07:56:01.357Z,12.30
2018-04-13T07:58:28.866Z,12.30
2018-04-13T08:00:56.412Z,12.30
2018-04-13T08:03:23.885Z,12.30
2018-04-13T08:05:51.453Z,12.30
2018-04-13T08:08:18.842Z,12.40
2018-04-13T08:10:46.504Z,12.40
2018-04-13T08:13:14.000Z,12.50
2018-04-13T08:15:41.453Z,12.50
2018-04-13T08:18:08.911Z,12.40
2018-04-13T08:20:36.396Z,12.50
2018-04-13T08:23:03.862Z,12.60
2018-04-13T08:25:31.341Z,12.50
2018-04-13T08:27:58.823Z,12.40
2018-04-13T08:30:26.313Z,12.30
2018-04-13T08:32:53.793Z,12.20
2018-04-13T08:35:22.139Z,12.50
2018-04-13T08:37:49.575Z,12.50
2018-04-13T08:40:17.053Z,12.60
2018-04-13T08:42:44.531Z,12.40
2018-04-13T08:45:12.078Z,12.60
2018-04-13T08:47:39.527Z,12.50
2018-04-13T08:50:07.024Z,12.30
2018-04-13T08:52:34.499Z,12.50
2018-04-13T08:55:02.805Z,12.70
2018-04-13T08:57:30.279Z,12.70
2018-04-13T08:59:57.718Z,12.70
2018-04-13T09:02:25.201Z,12.60
2018-04-13T09:04:52.676Z,12.70
2018-04-13T09:07:20.156Z,12.70
2018-04-13T09:09:48.416Z,12.50
2018-04-13T09:12:15.912Z,12.50
2018-04-13T09:14:43.398Z,12.60
2018-04-13T09:17:10.901Z,12.60
2018-04-13T09:19:39.181Z,12.70
2018-04-13T09:22:07.427Z,12.70
2018-04-13T09:24:34.938Z,12.70
2018-04-13T09:27:02.425Z,12.70
2018-04-13T09:29:30.680Z,12.70
2018-04-13T09:31:58.147Z,12.70
2018-04-13T09:34:25.617Z,12.70
2018-04-13T09:36:53.073Z,12.80
2018-04-13T09:39:21.342Z,12.80
2018-04-13T09:41:48.889Z,12.80
2018-04-13T09:44:16.401Z,12.80
2018-04-13T09:46:43.847Z,12.70
2018-04-13T09:49:11.324Z,12.80
2018-04-13T09:51:38.787Z,12.90
2018-04-13T09:54:06.254Z,12.90
2018-04-13T09:56:33.742Z,12.90
2018-04-13T09:59:01.253Z,12.90
2018-04-13T10:04:42.682Z,12.70
2018-04-13T10:07:10.140Z,12.40
2018-04-13T10:09:37.638Z,12.20
2018-04-13T10:12:05.092Z,12.50
2018-04-13T10:14:33.631Z,12.70
2018-04-13T10:17:01.351Z,12.80
2018-04-13T10:19:28.847Z,12.80
2018-04-13T10:21:56.307Z,12.60
2018-04-13T10:24:23.876Z,12.50
2018-04-13T10:26:51.383Z,12.50
2018-04-13T10:29:18.840Z,12.40
2018-04-13T10:31:46.319Z,12.50
2018-04-13T10:34:13.805Z,12.30
2018-04-13T10:36:41.323Z,12.40
2018-04-13T10:39:09.574Z,12.30
2018-04-13T10:41:37.063Z,12.30
2018-04-13T10:44:05.323Z,12.20
2018-04-13T10:46:33.563Z,12.20
2018-04-13T10:49:01.038Z,12.20
2018-04-13T10:51:28.517Z,12.10
2018-04-13T10:53:56.753Z,11.90
2018-04-13T10:56:24.248Z,11.90
2018-04-13T10:58:52.486Z,11.70
2018-04-13T11:01:20.732Z,11.50
2018-04-13T11:03:48.180Z,11.50
2018-04-13T11:06:15.657Z,11.40
2018-04-13T11:08:43.149Z,11.40
2018-04-13T11:11:11.392Z,11.20
2018-04-13T11:13:38.858Z,11.20
2018-04-13T11:16:07.099Z,11.20
2018-04-13T11:18:34.552Z,11.20
2018-04-13T11:21:02.064Z,11.30
2018-04-13T11:23:29.554Z,11.30
2018-04-13T11:25:57.042Z,11.20
2018-04-13T11:28:24.504Z,11.20
2018-04-13T11:30:51.976Z,11.30
2018-04-13T11:33:19.495Z,11.30
2018-04-13T11:35:47.074Z,11.30
2018-04-13T11:38:15.540Z,11.30
2018-04-13T11:40:43.118Z,11.20
2018-04-13T11:43:12.766Z,11.20
2018-04-13T11:45:40.996Z,11.20
2018-04-13T11:48:08.526Z,11.20
2018-04-13T11:50:35.986Z,11.20
2018-04-13T11:53:03.458Z,11.20
2018-04-13T11:55:30.921Z,11.20
2018-04-13T11:57:58.402Z,11.20
2018-04-13T12:00:25.891Z,11.20
2018-04-13T12:02:53.365Z,11.20
2018-04-13T12:05:20.856Z,11.20
2018-04-13T12:07:48.352Z,11.20
2018-04-13T12:10:18.423Z,11.20
2018-04-13T12:12:46.089Z,11.20
2018-04-13T12:15:13.640Z,11.20
2018-04-13T12:17:41.129Z,11.30
2018-04-13T12:20:08.672Z,11.30
2018-04-13T12:22:36.212Z,11.30
2018-04-13T12:25:03.709Z,11.20
2018-04-13T12:27:31.190Z,11.20
2018-04-13T12:29:59.450Z,11.40
2018-04-13T12:32:26.915Z,11.30
2018-04-13T12:34:55.152Z,11.40
2018-04-13T12:37:22.610Z,11.30
2018-04-13T12:39:50.109Z,11.40
2018-04-13T12:42:18.337Z,11.40
2018-04-13T12:44:45.836Z,11.40
2018-04-13T12:47:14.111Z,11.50
2018-04-13T12:49:42.346Z,11.50
2018-04-13T12:52:09.822Z,11.50
2018-04-13T12:54:38.536Z,11.60
2018-04-13T12:57:05.848Z,11.60
2018-04-13T12:59:34.014Z,11.70
2018-04-13T13:02:01.507Z,11.70
2018-04-13T13:04:28.963Z,11.80
2018-04-13T13:06:57.211Z,11.70
2018-04-13T13:09:24.696Z,11.70
2018-04-13T13:11:52.946Z,11.70
2018-04-13T13:14:20.448Z,11.70
2018-04-13T13:16:47.980Z,11.80
2018-04-13T13:19:16.221Z,11.70
2018-04-13T13:21:43.693Z,11.70
2018-04-13T13:24:11.192Z,11.80
2018-04-13T13:26:38.695Z,11.80
2018-04-13T13:29:06.166Z,11.70
2018-04-13T13:31:33.673Z,11.80
2018-04-13T13:34:01.160Z,11.80
2018-04-13T13:36:29.446Z,11.80
2018-04-13T13:38:57.728Z,11.80
2018-04-13T13:41:25.201Z,11.80
2018-04-13T13:43:53.490Z,11.60
2018-04-13T13:46:21.712Z,11.50
2018-04-13T13:48:49.191Z,11.50
2018-04-13T13:51:16.675Z,11.50
2018-04-13T13:53:44.918Z,11.40
2018-04-13T13:56:12.435Z,11.40
2018-04-13T13:58:39.901Z,11.40
2018-04-13T14:01:07.373Z,11.40
2018-04-13T14:03:34.878Z,11.40
2018-04-13T14:06:03.095Z,11.30
2018-04-13T14:08:30.600Z,11.40
2018-04-13T14:10:58.069Z,11.30
2018-04-13T14:13:25.582Z,11.20
2018-04-13T14:15:53.041Z,11.20
2018-04-13T14:18:20.549Z,11.10
2018-04-13T14:20:48.802Z,11.10
2018-04-13T14:23:17.057Z,11.00
2018-04-13T14:25:44.528Z,11.00
2018-04-13T14:28:12.030Z,11.00
2018-04-13T14:30:39.513Z,10.90
2018-04-13T14:33:06.968Z,10.90
2018-04-13T14:35:34.422Z,10.90
2018-04-13T14:38:01.974Z,10.80
2018-04-13T14:40:30.231Z,10.90
2018-04-13T14:42:57.699Z,10.90
2018-04-13T14:45:25.192Z,10.90
2018-04-13T14:47:52.663Z,10.90
2018-04-13T14:50:21.471Z,10.90
2018-04-13T14:52:48.962Z,10.90
2018-04-13T14:55:16.491Z,10.90
2018-04-13T14:57:43.994Z,11.00
2018-04-13T15:00:11.462Z,11.00
2018-04-13T15:02:38.945Z,11.00
2018-04-13T15:05:07.179Z,10.90
2018-04-13T15:07:34.670Z,10.90
2018-04-13T15:10:02.891Z,10.90
2018-04-13T15:12:30.385Z,10.90
2018-04-13T15:14:57.826Z,10.80
2018-04-13T15:17:25.311Z,10.80
2018-04-13T15:19:53.601Z,10.80
2018-04-13T15:22:21.085Z,10.80
2018-04-13T15:24:48.555Z,10.80
2018-04-13T15:27:16.562Z,10.90
2018-04-13T15:29:44.035Z,10.90
2018-04-13T15:32:12.309Z,10.90
2018-04-13T15:34:40.565Z,10.80
2018-04-13T15:37:08.031Z,10.80
2018-04-13T15:39:36.298Z,10.90
2018-04-13T15:42:03.804Z,10.80
2018-04-13T15:44:32.163Z,10.80
2018-04-13T15:46:59.646Z,10.80
2018-04-13T15:49:27.158Z,10.80
2018-04-13T15:51:55.384Z,10.80
2018-04-13T15:54:22.865Z,10.80
2018-04-13T15:56:50.317Z,10.80
2018-04-13T15:59:17.803Z,10.90
2018-04-13T16:01:46.066Z,10.90
2018-04-13T16:04:13.534Z,10.90
2018-04-13T16:06:41.826Z,11.10
2018-04-13T16:09:10.086Z,11.10
2018-04-13T16:11:38.358Z,11.10
2018-04-13T16:14:06.590Z,11.10
2018-04-13T16:16:34.094Z,11.10
2018-04-13T16:19:02.361Z,11.20
2018-04-13T16:21:30.679Z,11.20
2018-04-13T16:23:58.237Z,11.20
2018-04-13T16:26:25.720Z,11.30
2018-04-13T16:28:53.196Z,11.30
2018-04-13T16:31:20.702Z,11.30
2018-04-13T16:33:48.191Z,11.40
2018-04-13T16:36:15.674Z,11.30
2018-04-13T16:38:43.141Z,11.30
2018-04-13T16:41:11.429Z,11.20
2018-04-13T16:43:38.927Z,11.20
2018-04-13T16:46:06.387Z,11.20
2018-04-13T16:48:33.861Z,11.30
2018-04-13T16:51:01.399Z,11.30
2018-04-13T16:53:28.894Z,11.30
2018-04-13T16:55:57.172Z,11.20
2018-04-13T16:58:24.672Z,11.10
2018-04-13T17:00:52.324Z,11.10
2018-04-13T17:03:19.803Z,11.20
2018-04-13T17:05:47.332Z,11.20
2018-04-13T17:08:14.922Z,11.20
2018-04-13T17:10:42.416Z,11.20
2018-04-13T17:13:09.973Z,11.20
2018-04-13T17:15:37.466Z,11.10
2018-04-13T17:18:04.941Z,11.10
2018-04-13T17:20:32.514Z,11.10
2018-04-13T17:22:59.995Z,11.20
2018-04-13T17:25:27.500Z,11.10
2018-04-13T17:27:55.016Z,11.10
2018-04-13T17:30:22.502Z,11.10
2018-04-13T17:32:50.741Z,11.10
2018-04-13T17:35:18.243Z,11.10
2018-04-13T17:37:45.745Z,11.10
2018-04-13T17:40:13.245Z,11.10
2018-04-13T17:42:41.476Z,11.10
2018-04-13T17:45:08.984Z,11.10
2018-04-13T17:47:36.473Z,11.10
2018-04-13T17:50:03.964Z,11.20
2018-04-13T17:52:31.457Z,11.10
2018-04-13T17:54:58.985Z,11.10
2018-04-13T17:57:26.430Z,11.10
2018-04-13T17:59:53.955Z,11.10
2018-04-13T18:02:21.456Z,11.10
2018-04-13T18:04:48.924Z,11.00
2018-04-13T18:07:17.179Z,11.00
2018-04-13T18:09:44.672Z,11.00
2018-04-13T18:12:12.142Z,11.10
2018-04-13T18:14:39.674Z,11.10
2018-04-13T18:17:07.975Z,11.00
2018-04-13T18:19:35.480Z,11.10
2018-04-13T18:22:03.751Z,11.10
2018-04-13T18:24:31.247Z,11.10
2018-04-13T18:26:59.507Z,11.10
2018-04-13T18:29:28.331Z,11.10
2018-04-13T18:31:55.853Z,11.10
2018-04-13T18:34:24.125Z,11.20
2018-04-13T18:36:52.408Z,11.20
2018-04-13T18:39:20.631Z,11.30
2018-04-13T18:41:48.165Z,11.30
2018-04-13T18:44:15.671Z,11.20
2018-04-13T18:46:43.147Z,11.20
2018-04-13T18:49:11.441Z,11.10
2018-04-13T18:51:39.030Z,11.10
2018-04-13T18:54:06.532Z,11.10
2018-04-13T18:56:33.979Z,11.10
2018-04-13T18:59:01.500Z,11.20
2018-04-13T19:01:29.031Z,11.10
2018-04-13T19:03:56.516Z,11.00
2018-04-13T19:06:23.992Z,11.10
2018-04-13T19:08:51.499Z,11.00
2018-04-13T19:11:19.044Z,10.90
2018-04-13T19:13:46.657Z,10.90
2018-04-13T19:16:14.143Z,10.90
2018-04-13T19:18:41.636Z,10.90
2018-04-13T19:21:09.121Z,10.90
2018-04-13T19:23:36.646Z,11.00
2018-04-13T19:26:04.149Z,11.00
2018-04-13T19:28:31.637Z,11.00
2018-04-13T19:30:59.167Z,11.10
2018-04-13T19:33:26.692Z,11.10
2018-04-13T19:35:54.799Z,11.10
2018-04-13T19:38:22.313Z,11.10
2018-04-13T19:40:49.793Z,11.10
2018-04-13T19:43:17.275Z,11.00
2018-04-13T19:45:44.754Z,11.10
2018-04-13T19:48:12.210Z,11.10
2018-04-13T19:50:40.478Z,11.10
2018-04-13T19:53:07.988Z,11.10
2018-04-13T19:55:35.475Z,11.10
2018-04-13T19:58:03.023Z,11.10
2018-04-13T20:00:30.627Z,11.10
2018-04-13T20:02:58.166Z,11.10
2018-04-13T20:05:25.683Z,11.10
2018-04-13T20:07:53.219Z,11.10
2018-04-13T20:10:20.856Z,11.10
2018-04-13T20:12:49.182Z,11.10
2018-04-13T20:15:24.478Z,11.00
2018-04-13T20:17:52.893Z,11.00
2018-04-13T20:20:20.365Z,11.00
2018-04-13T20:22:47.892Z,11.00
2018-04-13T20:25:15.409Z,10.90
2018-04-13T20:27:43.024Z,10.90
2018-04-13T20:30:10.545Z,11.00
2018-04-13T20:32:38.847Z,10.90
2018-04-13T20:35:06.356Z,10.90
2018-04-13T20:37:33.917Z,10.90
2018-04-13T20:40:01.485Z,10.90
2018-04-13T20:42:28.997Z,10.90
2018-04-13T20:44:56.535Z,10.90
2018-04-13T20:47:24.031Z,10.90
2018-04-13T20:49:51.503Z,10.90
2018-04-13T20:52:19.168Z,10.90
2018-04-13T20:54:46.816Z,10.90
2018-04-13T20:57:14.344Z,10.90
2018-04-13T20:59:46.147Z,10.90
2018-04-13T21:02:13.627Z,10.80
2018-04-13T21:04:41.150Z,10.90
2018-04-13T21:07:08.752Z,10.90
2018-04-13T21:09:36.278Z,10.90
2018-04-13T21:12:03.777Z,10.90
2018-04-13T21:14:31.291Z,10.90
2018-04-13T21:16:58.805Z,10.80
2018-04-13T21:19:26.352Z,10.80
2018-04-13T21:21:54.084Z,10.80
2018-04-13T21:24:21.604Z,10.90
2018-04-13T21:26:49.125Z,10.90
2018-04-13T21:29:16.688Z,11.00
2018-04-13T21:31:44.960Z,11.00
2018-04-13T21:34:14.052Z,10.90
2018-04-13T21:36:47.678Z,11.00
2018-04-13T21:39:16.157Z,11.00
2018-04-13T21:41:43.591Z,11.00
2018-04-13T21:44:11.047Z,11.00
2018-04-13T21:46:38.551Z,11.00
2018-04-13T21:49:06.210Z,11.00
2018-04-13T21:51:33.727Z,11.00
2018-04-13T21:54:01.201Z,10.90
2018-04-13T21:56:28.806Z,10.90
2018-04-13T21:58:57.081Z,11.00
2018-04-13T22:01:24.630Z,11.00
2018-04-13T22:03:52.193Z,11.00
2018-04-13T22:06:19.722Z,11.10
2018-04-13T22:08:47.242Z,11.10
2018-04-13T22:11:14.723Z,11.10
2018-04-13T22:13:46.216Z,11.10
2018-04-13T22:16:18.445Z,11.00
2018-04-13T22:18:45.931Z,11.00
2018-04-13T22:21:13.403Z,11.00
2018-04-13T22:23:41.680Z,11.00
2018-04-13T22:26:09.293Z,11.00
2018-04-13T22:28:36.800Z,11.10
2018-04-13T22:31:04.272Z,11.00
2018-04-13T22:33:31.825Z,11.00
2018-04-13T22:35:59.336Z,11.00
2018-04-13T22:38:26.851Z,10.90
2018-04-13T22:40:54.377Z,10.80
2018-04-13T22:43:21.875Z,10.80
2018-04-13T22:45:49.390Z,10.80
2018-04-13T22:48:16.901Z,10.80
2018-04-13T22:50:44.376Z,10.70
2018-04-13T22:53:12.648Z,10.60
2018-04-13T22:55:40.135Z,10.60
2018-04-13T22:58:07.668Z,10.60
2018-04-13T23:00:35.512Z,10.70
2018-04-13T23:03:02.981Z,10.60
2018-04-13T23:05:30.507Z,10.60
2018-04-13T23:07:57.977Z,10.60
2018-04-13T23:10:25.460Z,10.60
2018-04-13T23:12:52.944Z,10.70
2018-04-13T23:15:20.424Z,10.70
2018-04-13T23:17:47.884Z,10.70
2018-04-13T23:22:50.014Z,10.60
2018-04-13T23:25:17.509Z,10.60
2018-04-13T23:27:45.843Z,10.60
2018-04-13T23:30:13.309Z,10.60
2018-04-13T23:32:40.884Z,10.60
2018-04-13T23:35:08.374Z,10.60
2018-04-13T23:37:35.935Z,10.60
2018-04-13T23:40:03.434Z,10.60
2018-04-13T23:42:30.998Z,10.50
2018-04-13T23:44:58.477Z,10.50
2018-04-13T23:47:25.958Z,10.50
2018-04-13T23:49:54.219Z,10.40
2018-04-13T23:52:21.754Z,10.40
2018-04-13T23:54:49.255Z,10.40
2018-04-13T23:57:17.234Z,10.30
2018-04-13T23:59:44.741Z,10.20
